createdAt,value
2023-04-29T00:02:07.805Z,11.91
2023-04-29T00:04:35.097Z,11.91
2023-04-29T00:07:02.382Z,11.90
2023-04-29T00:09:29.467Z,11.86
2023-04-29T00:11:56.805Z,11.83
2023-04-29T00:14:24.789Z,11.83
2023-04-29T00:16:51.906Z,11.82
2023-04-29T00:19:19.149Z,11.81
2023-04-29T00:21:46.146Z,11.80
2023-04-29T00:24:13.169Z,11.79
2023-04-29T00:26:41.299Z,11.77
2023-04-29T00:29:08.326Z,11.75
2023-04-29T00:31:35.582Z,11.71
2023-04-29T00:34:02.987Z,11.67
2023-04-29T00:36:31.918Z,11.64
2023-04-29T00:38:59.329Z,11.61
2023-04-29T00:41:26.652Z,11.56
2023-04-29T00:43:53.716Z,11.53
2023-04-29T00:46:20.742Z,11.52
2023-04-29T00:48:47.935Z,11.48
2023-04-29T00:51:17.153Z,11.42
2023-04-29T00:53:45.054Z,11.38
2023-04-29T00:56:14.924Z,11.32
2023-04-29T00:58:49.705Z,11.29
2023-04-29T01:01:17.459Z,11.26
2023-04-29T01:03:45.943Z,11.25
2023-04-29T01:06:50.793Z,11.25
2023-04-29T01:09:38.874Z,11.25
2023-04-29T01:12:22.379Z,11.25
2023-04-29T01:15:11.477Z,11.24
2023-04-29T01:17:48.211Z,11.22
2023-04-29T01:20:16.549Z,11.18
2023-04-29T01:22:44.126Z,11.15
2023-04-29T01:25:11.175Z,11.12
2023-04-29T01:27:56.228Z,11.11
2023-04-29T01:30:56.759Z,11.08
2023-04-29T01:33:32.154Z,11.05
2023-04-29T01:36:27.799Z,11.05
2023-04-29T01:39:57.962Z,11.03
2023-04-29T01:42:42.237Z,11.04
2023-04-29T01:45:14.943Z,11.04
2023-04-29T01:47:43.224Z,11.03
2023-04-29T01:50:11.361Z,11.00
2023-04-29T01:52:38.717Z,10.96
2023-04-29T01:55:07.043Z,10.92
2023-04-29T01:57:34.434Z,10.90
2023-04-29T02:00:02.213Z,10.91
2023-04-29T02:02:29.448Z,10.89
2023-04-29T02:04:56.769Z,10.91
2023-04-29T02:07:23.861Z,10.90
2023-04-29T02:09:51.250Z,10.87
2023-04-29T02:12:18.393Z,10.85
2023-04-29T02:14:47.873Z,10.85
2023-04-29T02:17:14.966Z,10.85
2023-04-29T02:19:41.968Z,10.85
2023-04-29T02:22:09.298Z,10.84
2023-04-29T02:24:36.696Z,10.84
2023-04-29T02:27:06.037Z,10.85
2023-04-29T02:29:33.455Z,10.83
2023-04-29T02:32:00.517Z,10.84
2023-04-29T02:34:27.974Z,10.83
2023-04-29T02:36:55.060Z,10.82
2023-04-29T02:39:22.145Z,10.82
2023-04-29T02:41:49.413Z,10.84
2023-04-29T02:44:16.680Z,10.89
2023-04-29T02:46:45.799Z,10.88
2023-04-29T02:49:14.164Z,10.86
2023-04-29T02:51:41.500Z,10.85
2023-04-29T02:54:08.697Z,10.85
2023-04-29T02:56:35.707Z,10.79
2023-04-29T02:59:02.785Z,10.80
2023-04-29T03:01:29.812Z,10.77
2023-04-29T03:03:57.648Z,10.77
2023-04-29T03:06:24.783Z,10.79
2023-04-29T03:08:53.061Z,10.78
2023-04-29T03:11:20.898Z,10.79
2023-04-29T03:13:48.120Z,10.79
2023-04-29T03:16:16.998Z,10.77
2023-04-29T03:18:45.215Z,10.77
2023-04-29T03:21:12.295Z,10.76
2023-04-29T03:23:42.848Z,10.74
2023-04-29T03:26:10.524Z,10.74
2023-04-29T03:28:37.716Z,10.73
2023-04-29T03:31:05.089Z,10.72
2023-04-29T03:33:32.252Z,10.72
2023-04-29T03:35:59.307Z,10.72
2023-04-29T03:38:26.465Z,10.71
2023-04-29T03:40:53.417Z,10.68
2023-04-29T03:43:20.608Z,10.68
2023-04-29T03:45:47.654Z,10.68
2023-04-29T03:48:14.786Z,10.66
2023-04-29T03:50:41.822Z,10.66
2023-04-29T03:53:08.968Z,10.66
2023-04-29T03:55:35.950Z,10.66
2023-04-29T03:58:02.952Z,10.67
2023-04-29T04:00:31.518Z,10.66
2023-04-29T04:02:59.836Z,10.63
2023-04-29T04:05:27.943Z,10.60
2023-04-29T04:07:56.203Z,10.60
2023-04-29T04:10:23.245Z,10.60
2023-04-29T04:12:50.221Z,10.58
2023-04-29T04:15:17.492Z,10.59
2023-04-29T04:17:44.649Z,10.58
2023-04-29T04:20:13.238Z,10.58
2023-04-29T04:22:40.368Z,10.56
2023-04-29T04:25:08.393Z,10.57
2023-04-29T04:27:35.579Z,10.56
2023-04-29T04:30:02.642Z,10.54
2023-04-29T04:32:29.638Z,10.56
2023-04-29T04:34:57.308Z,10.55
2023-04-29T04:37:24.435Z,10.55
2023-04-29T04:39:51.498Z,10.57
2023-04-29T04:42:18.938Z,10.59
2023-04-29T04:44:45.894Z,10.60
2023-04-29T04:47:12.997Z,10.62
2023-04-29T04:49:40.074Z,10.63
2023-04-29T04:52:07.098Z,10.65
2023-04-29T04:54:34.299Z,10.66
2023-04-29T04:57:03.177Z,10.68
2023-04-29T04:59:30.231Z,10.70
2023-04-29T05:01:57.220Z,10.70
2023-04-29T05:04:24.367Z,10.71
2023-04-29T05:06:51.618Z,10.70
2023-04-29T05:09:18.624Z,10.70
2023-04-29T05:11:46.503Z,10.68
2023-04-29T05:14:13.588Z,10.68
2023-04-29T05:16:40.823Z,10.67
2023-04-29T05:19:09.268Z,10.65
2023-04-29T05:21:36.379Z,10.65
2023-04-29T05:24:03.679Z,10.66
2023-04-29T05:26:30.900Z,10.65
2023-04-29T05:28:57.845Z,10.66
2023-04-29T05:31:24.920Z,10.66
2023-04-29T05:33:52.000Z,10.69
2023-04-29T05:36:19.036Z,10.71
2023-04-29T05:38:46.058Z,10.73
2023-04-29T05:41:14.259Z,10.74
2023-04-29T05:43:41.389Z,10.77
2023-04-29T05:46:08.527Z,10.77
2023-04-29T05:48:35.650Z,10.79
2023-04-29T05:51:02.831Z,10.81
2023-04-29T05:53:30.093Z,10.83
2023-04-29T05:55:57.398Z,10.83
2023-04-29T05:58:25.744Z,10.85
2023-04-29T06:00:52.752Z,10.86
2023-04-29T06:03:19.924Z,10.85
2023-04-29T06:05:47.745Z,10.84
2023-04-29T06:08:14.900Z,10.84
2023-04-29T06:10:41.894Z,10.86
2023-04-29T06:13:08.971Z,10.91
2023-04-29T06:15:36.090Z,10.94
2023-04-29T06:18:03.334Z,10.95
2023-04-29T06:20:30.435Z,10.96
2023-04-29T06:22:57.444Z,11.02
2023-04-29T06:25:24.448Z,11.05
2023-04-29T06:27:51.441Z,11.05
2023-04-29T06:30:18.624Z,11.10
2023-04-29T06:32:45.963Z,11.10
2023-04-29T06:35:13.021Z,11.15
2023-04-29T06:37:39.964Z,11.19
2023-04-29T06:40:08.221Z,11.23
2023-04-29T06:42:35.292Z,11.24
2023-04-29T06:45:02.349Z,11.24
2023-04-29T06:47:29.465Z,11.28
2023-04-29T06:49:56.591Z,11.33
2023-04-29T06:52:23.710Z,11.34
2023-04-29T06:54:50.714Z,11.34
2023-04-29T06:57:17.826Z,11.37
2023-04-29T06:59:44.878Z,11.41
2023-04-29T07:02:12.123Z,11.45
2023-04-29T07:04:39.355Z,11.49
2023-04-29T07:07:06.952Z,11.51
2023-04-29T07:09:34.019Z,11.55
2023-04-29T07:12:02.747Z,11.61
2023-04-29T07:14:29.911Z,11.67
2023-04-29T07:16:57.042Z,11.82
2023-04-29T07:19:24.204Z,11.92
2023-04-29T07:21:51.206Z,11.98
2023-04-29T07:24:18.320Z,12.18
2023-04-29T07:26:45.614Z,12.42
2023-04-29T07:29:12.718Z,12.62
2023-04-29T07:31:39.762Z,12.79
2023-04-29T07:34:06.866Z,12.94
2023-04-29T07:36:34.805Z,13.11
2023-04-29T07:39:02.369Z,13.30
2023-04-29T07:41:29.542Z,13.41
2023-04-29T07:43:56.672Z,13.44
2023-04-29T07:46:23.743Z,13.48
2023-04-29T07:48:50.784Z,13.53
2023-04-29T07:51:17.853Z,13.57
2023-04-29T07:53:44.844Z,13.66
2023-04-29T07:56:11.987Z,13.72
2023-04-29T07:58:39.085Z,13.78
2023-04-29T08:01:11.668Z,13.87
2023-04-29T08:03:42.414Z,13.92
2023-04-29T08:06:10.288Z,13.94
2023-04-29T08:08:37.589Z,14.00
2023-04-29T08:11:05.138Z,14.05
2023-04-29T08:13:32.351Z,14.02
2023-04-29T08:15:59.349Z,13.93
2023-04-29T08:18:26.612Z,13.91
2023-04-29T08:20:54.003Z,13.97
2023-04-29T08:23:21.154Z,14.13
2023-04-29T08:25:48.233Z,14.33
2023-04-29T08:28:15.360Z,14.56
2023-04-29T08:30:42.676Z,14.84
2023-04-29T08:33:09.849Z,15.05
2023-04-29T08:35:39.803Z,15.28
2023-04-29T08:38:07.780Z,15.48
2023-04-29T08:40:47.128Z,15.67
2023-04-29T08:43:15.660Z,15.81
2023-04-29T08:45:48.657Z,15.92
2023-04-29T08:48:17.897Z,16.09
2023-04-29T08:50:45.733Z,16.32
2023-04-29T08:53:14.585Z,16.46
2023-04-29T08:55:48.322Z,16.57
2023-04-29T08:58:17.008Z,16.74
2023-04-29T09:00:45.112Z,16.92
2023-04-29T09:03:36.887Z,17.07
2023-04-29T09:06:06.611Z,17.05
2023-04-29T09:08:34.118Z,17.13
2023-04-29T09:11:01.532Z,17.19
2023-04-29T09:13:31.818Z,17.18
2023-04-29T09:15:59.365Z,17.28
2023-04-29T09:18:46.160Z,17.37
2023-04-29T09:21:24.221Z,17.38
2023-04-29T09:23:57.737Z,17.31
2023-04-29T09:26:25.988Z,17.35
2023-04-29T09:29:16.052Z,17.56
2023-04-29T09:31:43.208Z,17.69
2023-04-29T09:34:14.376Z,17.87
2023-04-29T09:36:50.963Z,18.07
2023-04-29T09:39:22.982Z,18.17
2023-04-29T09:41:53.102Z,18.29
2023-04-29T09:44:24.688Z,18.42
2023-04-29T09:47:10.837Z,18.46
2023-04-29T09:49:41.853Z,18.41
2023-04-29T09:52:12.421Z,18.39
2023-04-29T09:54:42.971Z,18.35
2023-04-29T09:57:13.983Z,18.31
2023-04-29T09:59:42.972Z,18.14
2023-04-29T10:02:18.681Z,18.16
2023-04-29T10:04:57.803Z,18.01
2023-04-29T10:07:28.206Z,17.91
2023-04-29T10:09:57.526Z,18.18
2023-04-29T10:12:26.481Z,18.58
2023-04-29T10:15:43.991Z,18.83
2023-04-29T10:18:26.312Z,18.49
2023-04-29T10:20:57.460Z,18.24
2023-04-29T10:23:25.938Z,18.24
2023-04-29T10:25:53.762Z,18.35
2023-04-29T10:28:23.634Z,18.44
2023-04-29T10:30:56.134Z,18.48
2023-04-29T10:33:23.774Z,18.48
2023-04-29T10:35:56.402Z,18.56
2023-04-29T10:38:37.269Z,18.75
2023-04-29T10:41:30.153Z,18.92
2023-04-29T10:44:04.316Z,19.22
2023-04-29T10:46:31.620Z,19.65
2023-04-29T10:49:04.086Z,19.93
2023-04-29T10:51:33.418Z,20.07
2023-04-29T10:54:10.809Z,19.98
2023-04-29T10:56:50.228Z,19.77
2023-04-29T10:59:22.453Z,19.51
2023-04-29T11:01:51.940Z,19.21
2023-04-29T11:04:23.490Z,18.97
2023-04-29T11:06:59.160Z,18.71
2023-04-29T11:09:33.461Z,18.51
2023-04-29T11:12:06.573Z,18.40
2023-04-29T11:14:43.532Z,18.47
2023-04-29T11:17:15.617Z,18.64
2023-04-29T11:19:50.269Z,18.72
2023-04-29T11:22:23.156Z,18.70
2023-04-29T11:25:06.520Z,18.60
2023-04-29T11:27:36.506Z,18.47
2023-04-29T11:30:06.939Z,18.49
2023-04-29T11:32:45.714Z,18.54
2023-04-29T11:35:18.935Z,18.47
2023-04-29T11:37:47.456Z,18.40
2023-04-29T11:40:15.391Z,18.34
2023-04-29T11:42:46.164Z,18.27
2023-04-29T11:45:15.294Z,18.37
2023-04-29T11:47:47.758Z,18.60
2023-04-29T11:50:19.205Z,18.91
2023-04-29T11:52:49.694Z,19.19
2023-04-29T11:55:17.045Z,19.39
2023-04-29T11:57:44.504Z,19.46
2023-04-29T12:00:13.705Z,19.31
2023-04-29T12:02:49.176Z,19.10
2023-04-29T12:05:17.467Z,18.81
2023-04-29T12:07:45.413Z,18.59
2023-04-29T12:10:12.890Z,18.51
2023-04-29T12:12:46.701Z,18.50
2023-04-29T12:15:14.512Z,18.59
2023-04-29T12:17:43.823Z,18.68
2023-04-29T12:20:12.115Z,18.90
2023-04-29T12:22:39.701Z,19.41
2023-04-29T12:25:08.001Z,19.89
2023-04-29T12:27:37.062Z,20.30
2023-04-29T12:30:09.590Z,20.62
2023-04-29T12:32:37.586Z,20.87
2023-04-29T12:35:05.177Z,20.96
2023-04-29T12:37:33.134Z,21.08
2023-04-29T12:40:00.274Z,21.20
2023-04-29T12:42:34.173Z,21.24
2023-04-29T12:45:01.335Z,21.35
2023-04-29T12:47:37.492Z,21.42
2023-04-29T12:50:07.449Z,21.58
2023-04-29T12:52:36.584Z,21.75
2023-04-29T12:55:04.818Z,21.85
2023-04-29T12:57:32.167Z,22.00
2023-04-29T12:59:59.451Z,22.08
2023-04-29T13:02:26.671Z,22.21
2023-04-29T13:04:54.109Z,22.32
2023-04-29T13:07:21.377Z,22.51
2023-04-29T13:09:48.422Z,22.69
2023-04-29T13:12:15.443Z,22.83
2023-04-29T13:14:42.599Z,22.83
2023-04-29T13:17:10.699Z,22.72
2023-04-29T13:19:50.153Z,22.55
2023-04-29T13:22:19.060Z,22.38
2023-04-29T13:24:46.947Z,22.18
2023-04-29T13:27:14.090Z,22.13
2023-04-29T13:29:41.297Z,22.16
2023-04-29T13:32:08.878Z,22.14
2023-04-29T13:34:36.233Z,22.08
2023-04-29T13:37:03.723Z,22.02
2023-04-29T13:39:30.727Z,22.07
2023-04-29T13:41:59.717Z,22.13
2023-04-29T13:44:34.080Z,22.20
2023-04-29T13:47:06.933Z,22.25
2023-04-29T13:50:14.443Z,22.32
2023-04-29T13:55:14.915Z,22.60
2023-04-29T13:58:31.269Z,22.69
2023-04-29T14:00:57.034Z,22.61
2023-04-29T14:03:13.454Z,22.44
2023-04-29T14:05:42.028Z,22.32
2023-04-29T14:08:09.539Z,22.23
2023-04-29T14:10:37.168Z,22.14
2023-04-29T14:13:05.219Z,22.10
2023-04-29T14:15:32.439Z,22.00
2023-04-29T14:17:59.565Z,21.93
2023-04-29T14:20:26.787Z,21.91
2023-04-29T14:22:54.376Z,21.80
2023-04-29T14:25:21.496Z,21.73
2023-04-29T14:27:49.233Z,21.71
2023-04-29T14:30:17.108Z,21.78
2023-04-29T14:32:44.211Z,21.92
2023-04-29T14:35:11.356Z,21.98
2023-04-29T14:37:38.477Z,21.99
2023-04-29T14:40:06.521Z,21.96
2023-04-29T14:42:33.475Z,21.90
2023-04-29T14:45:00.595Z,21.81
2023-04-29T14:47:29.048Z,21.70
2023-04-29T14:49:56.480Z,21.51
2023-04-29T14:52:23.612Z,21.28
2023-04-29T14:54:51.563Z,21.07
2023-04-29T14:57:18.985Z,20.89
2023-04-29T14:59:45.950Z,20.78
2023-04-29T15:02:13.184Z,20.64
2023-04-29T15:04:45.571Z,20.49
2023-04-29T15:07:13.880Z,20.38
2023-04-29T15:09:41.332Z,20.33
2023-04-29T15:12:09.522Z,20.27
2023-04-29T15:14:37.049Z,20.29
2023-04-29T15:17:04.066Z,20.34
2023-04-29T15:19:31.097Z,20.39
2023-04-29T15:21:58.104Z,20.43
2023-04-29T15:24:25.270Z,20.46
2023-04-29T15:26:53.305Z,20.50
2023-04-29T15:29:20.755Z,20.55
2023-04-29T15:31:47.991Z,20.54
2023-04-29T15:34:15.027Z,20.55
2023-04-29T15:36:42.325Z,20.56
2023-04-29T15:39:12.580Z,20.61
2023-04-29T15:41:39.612Z,20.68
2023-04-29T15:44:06.778Z,20.74
2023-04-29T15:46:33.862Z,20.84
2023-04-29T15:49:01.311Z,20.90
2023-04-29T15:51:28.425Z,21.02
2023-04-29T15:53:55.536Z,21.11
2023-04-29T15:56:22.512Z,21.16
2023-04-29T15:58:49.546Z,21.18
2023-04-29T16:01:16.640Z,21.24
2023-04-29T16:03:43.710Z,21.26
2023-04-29T16:06:10.946Z,21.24
2023-04-29T16:08:37.913Z,21.25
2023-04-29T16:11:04.981Z,21.24
2023-04-29T16:13:32.757Z,21.21
2023-04-29T16:16:01.611Z,21.14
2023-04-29T16:18:28.668Z,21.14
2023-04-29T16:20:55.852Z,21.18
2023-04-29T16:23:22.919Z,21.20
2023-04-29T16:25:50.093Z,21.18
2023-04-29T16:28:17.529Z,21.13
2023-04-29T16:30:44.627Z,21.11
2023-04-29T16:33:11.644Z,21.11
2023-04-29T16:35:38.759Z,21.09
2023-04-29T16:38:05.946Z,21.01
2023-04-29T16:40:33.203Z,20.87
2023-04-29T16:43:00.394Z,20.71
2023-04-29T16:45:27.477Z,20.53
2023-04-29T16:47:54.774Z,20.35
2023-04-29T16:50:22.008Z,20.17
2023-04-29T16:52:49.460Z,20.01
2023-04-29T16:55:16.618Z,19.80
2023-04-29T16:57:44.047Z,19.62
2023-04-29T17:00:12.172Z,19.39
2023-04-29T17:02:43.110Z,19.22
2023-04-29T17:05:11.108Z,19.02
2023-04-29T17:07:38.861Z,18.83
2023-04-29T17:10:07.626Z,18.66
2023-04-29T17:12:34.654Z,18.52
2023-04-29T17:15:01.897Z,18.38
2023-04-29T17:17:29.021Z,18.24
2023-04-29T17:19:56.605Z,18.13
2023-04-29T17:22:24.048Z,17.98
2023-04-29T17:24:51.307Z,17.85
2023-04-29T17:27:18.414Z,17.75
2023-04-29T17:29:45.447Z,17.67
2023-04-29T17:32:15.339Z,17.61
2023-04-29T17:34:42.393Z,17.58
2023-04-29T17:37:09.687Z,17.51
2023-04-29T17:39:36.809Z,17.45
2023-04-29T17:42:04.097Z,17.39
2023-04-29T17:44:31.145Z,17.33
2023-04-29T17:46:58.135Z,17.30
2023-04-29T17:49:25.308Z,17.27
2023-04-29T17:51:52.570Z,17.25
2023-04-29T17:54:19.582Z,17.21
2023-04-29T17:56:46.676Z,17.19
2023-04-29T17:59:13.679Z,17.17
2023-04-29T18:01:40.881Z,17.16
2023-04-29T18:04:08.003Z,17.11
2023-04-29T18:06:35.185Z,17.09
2023-04-29T18:09:02.558Z,17.04
2023-04-29T18:11:29.636Z,17.00
2023-04-29T18:13:56.910Z,16.96
2023-04-29T18:16:24.746Z,16.93
2023-04-29T18:18:53.290Z,16.88
2023-04-29T18:21:27.472Z,16.85
2023-04-29T18:23:55.846Z,16.81
2023-04-29T18:26:23.545Z,16.77
2023-04-29T18:28:50.973Z,16.73
2023-04-29T18:31:19.123Z,16.69
2023-04-29T18:33:46.435Z,16.66
2023-04-29T18:36:14.405Z,16.64
2023-04-29T18:38:41.730Z,16.60
2023-04-29T18:41:09.035Z,16.60
2023-04-29T18:43:36.742Z,16.56
2023-04-29T18:46:04.038Z,16.56
2023-04-29T18:48:31.506Z,16.54
2023-04-29T18:51:03.384Z,16.53
2023-04-29T18:53:31.172Z,16.51
2023-04-29T18:55:58.167Z,16.50
2023-04-29T18:58:28.155Z,16.46
2023-04-29T19:00:57.722Z,16.44
2023-04-29T19:03:24.891Z,16.42
2023-04-29T19:05:51.995Z,16.38
2023-04-29T19:08:19.170Z,16.33
2023-04-29T19:10:46.556Z,16.32
2023-04-29T19:13:13.590Z,16.29
2023-04-29T19:15:40.999Z,16.24
2023-04-29T19:18:08.035Z,16.18
2023-04-29T19:20:35.149Z,16.13
2023-04-29T19:23:02.178Z,16.10
2023-04-29T19:25:30.580Z,16.07
2023-04-29T19:27:57.585Z,16.05
2023-04-29T19:30:24.840Z,16.02
2023-04-29T19:32:51.909Z,16.01
2023-04-29T19:35:18.942Z,15.97
2023-04-29T19:37:46.000Z,15.92
2023-04-29T19:40:13.200Z,15.88
2023-04-29T19:42:40.305Z,15.82
2023-04-29T19:45:08.350Z,15.77
2023-04-29T19:47:36.308Z,15.74
2023-04-29T19:50:04.714Z,15.66
2023-04-29T19:52:31.922Z,15.59
2023-04-29T19:54:58.910Z,15.52
2023-04-29T19:57:26.183Z,15.45
2023-04-29T19:59:53.517Z,15.39
2023-04-29T20:02:20.774Z,15.29
2023-04-29T20:04:48.282Z,15.21
2023-04-29T20:07:15.314Z,15.13
2023-04-29T20:09:42.319Z,15.01
2023-04-29T20:12:09.374Z,14.92
2023-04-29T20:14:36.461Z,14.82
2023-04-29T20:17:03.595Z,14.75
2023-04-29T20:19:31.450Z,14.67
2023-04-29T20:21:58.608Z,14.59
2023-04-29T20:24:25.653Z,14.50
2023-04-29T20:26:52.733Z,14.43
2023-04-29T20:29:19.802Z,14.35
2023-04-29T20:31:47.578Z,14.28
2023-04-29T20:34:14.718Z,14.24
2023-04-29T20:36:41.744Z,14.20
2023-04-29T20:39:09.445Z,14.13
2023-04-29T20:41:36.576Z,14.06
2023-04-29T20:44:04.487Z,14.02
2023-04-29T20:46:31.795Z,13.95
2023-04-29T20:48:59.357Z,13.91
2023-04-29T20:51:26.875Z,13.86
2023-04-29T20:53:56.485Z,13.82
2023-04-29T20:56:23.570Z,13.75
2023-04-29T20:58:50.848Z,13.71
2023-04-29T21:01:19.448Z,13.67
2023-04-29T21:03:46.705Z,13.63
2023-04-29T21:06:13.750Z,13.62
2023-04-29T21:08:40.996Z,13.61
2023-04-29T21:11:10.012Z,13.62
2023-04-29T21:13:37.409Z,13.63
2023-04-29T21:16:05.300Z,13.64
2023-04-29T21:18:32.335Z,13.63
2023-04-29T21:20:59.490Z,13.65
2023-04-29T21:23:26.674Z,13.63
2023-04-29T21:25:53.685Z,13.60
2023-04-29T21:28:20.828Z,13.56
2023-04-29T21:30:47.886Z,13.51
2023-04-29T21:33:15.007Z,13.47
2023-04-29T21:35:43.174Z,13.41
2023-04-29T21:38:10.301Z,13.35
2023-04-29T21:40:44.873Z,13.27
2023-04-29T21:43:12.162Z,13.19
2023-04-29T21:45:39.786Z,13.12
2023-04-29T21:48:18.320Z,13.04
2023-04-29T21:50:46.279Z,12.98
2023-04-29T21:53:16.406Z,12.91
2023-04-29T21:55:43.929Z,12.82
2023-04-29T21:58:11.345Z,12.73
2023-04-29T22:00:41.225Z,12.68
2023-04-29T22:03:10.465Z,12.63
2023-04-29T22:05:38.058Z,12.57
2023-04-29T22:08:07.594Z,12.51
2023-04-29T22:10:34.889Z,12.45
2023-04-29T22:13:01.979Z,12.40
2023-04-29T22:15:29.611Z,12.35
2023-04-29T22:17:57.482Z,12.30
2023-04-29T22:20:25.403Z,12.25
2023-04-29T22:22:52.570Z,12.21
2023-04-29T22:25:21.779Z,12.17
2023-04-29T22:27:49.893Z,12.13
2023-04-29T22:30:18.015Z,12.06
2023-04-29T22:32:45.291Z,12.03
2023-04-29T22:35:12.367Z,11.97
2023-04-29T22:37:39.357Z,11.94
2023-04-29T22:40:07.694Z,11.92
2023-04-29T22:42:34.730Z,11.86
2023-04-29T22:45:01.785Z,11.81
2023-04-29T22:47:29.218Z,11.77
2023-04-29T22:49:56.509Z,11.74
2023-04-29T22:52:23.663Z,11.70
2023-04-29T22:54:50.927Z,11.66
2023-04-29T22:57:17.935Z,11.61
2023-04-29T22:59:45.110Z,11.57
2023-04-29T23:02:12.185Z,11.53
2023-04-29T23:04:39.199Z,11.49
2023-04-29T23:07:06.479Z,11.46
2023-04-29T23:09:33.855Z,11.42
2023-04-29T23:12:01.118Z,11.39
2023-04-29T23:14:28.313Z,11.35
2023-04-29T23:16:56.223Z,11.33
2023-04-29T23:19:23.280Z,11.27
2023-04-29T23:21:50.758Z,11.23
2023-04-29T23:24:17.824Z,11.20
2023-04-29T23:26:44.777Z,11.17
2023-04-29T23:29:11.855Z,11.13
2023-04-29T23:31:39.275Z,11.09
2023-04-29T23:34:07.853Z,11.05
2023-04-29T23:36:34.999Z,10.99
2023-04-29T23:39:02.030Z,10.97
2023-04-29T23:41:29.285Z,10.94
2023-04-29T23:44:01.007Z,10.91
2023-04-29T23:46:28.338Z,10.88
2023-04-29T23:48:55.644Z,10.86
2023-04-29T23:51:22.671Z,10.83
2023-04-29T23:53:49.774Z,10.80
2023-04-29T23:56:16.802Z,10.74
2023-04-29T23:58:43.818Z,10.72
